world map with VBS marked

VBS - Airport

This information may not be accurate or current and is not valid for navigation or flight planning. No warranty of fitness for any purpose is made or implied.

flag of Lombardyflag of Italy

Donate via PayPal

Additional information is available on the NEW Great Circle Mapper

Location
City:  Brescia, Lombardy, Italy
Name:Montichiari
ICAO / IATA:LIPO / VBS

Details
Type:Airport (Aerodrome, Airfield)
Use:Public/Civil
Latitude:45°25'44"N (45.428889)
Longitude:10°19'50"E (10.330556)
Datum:WGS 1984
Elevation:356 ft (109 m)
Runways:1
Longest:9810 × 148 ft (2990 × 45 m)

Time
Timezone:UTC+1 (DST+4)
Local Time:

Weather
METAR:LIPO  041350Z 22004KT CAVOK 12/M06 Q1024
TAF:LIPO  041100Z 0412/0512 12007KT 9999 SCT060 TEMPO 0420/0506 4000 BR

Related Locations
Nearby:
Farthest:CHT: 12087 mi / 19451 km
Waitangi [Tuuta], CIT, NZ

Find:

   beyond  
but within

Other Information
Maps:
Links:
Sources:

  


 


Great Circle Mapper   Great Circle Mapper
Great Circle Mapper FAQ   Great Circle Mapper FAQ
  Karl's Home Page
KLSē   KLSē Home
   GC on Facebook
Airlines of the World   Airlines of the World
Donate via PayPal


Copyright © 2004-2020, Karl L. Swartz. All rights reserved.
All trademarks mentioned herein belong to their respective owners.

Please see credits for attribution and copyright information.

Karl Swartz <karl@kls2.com>
  Powered by FreeBSD
Valid HTML 4.01!
Labeled with ICRA
hCard Microformat
Geo Microformat